Time;durP1;ratioP1;P1;durP2;ratioP2;P2;SDS_P1;SDS_P2;PMS_P1;PMS_P2;Temp;Humidity;BMP_temperature;BMP_pressure;BME280_temperature;BME280_humidity;BME280_pressure;Samples;Min_cycle;Max_cycle;Signal;HPM_P1;HPM_P2
2023/11/26 00:00:53;;;;;;;8.27;5.15;;;;;;;0.05;100.00;100520.78;7395856;19;20372;-59
2023/11/26 00:03:19;;;;;;;9.48;5.22;;;;;;;0.03;100.00;100519.22;7393722;19;20392;-56
2023/11/26 00:05:47;;;;;;;7.30;4.95;;;;;;;0.04;100.00;100515.66;7395555;19;20676;-59
2023/11/26 00:08:13;;;;;;;10.80;5.13;;;;;;;-0.01;100.00;100514.22;7394903;19;20452;-60
2023/11/26 00:10:41;;;;;;;9.07;5.40;;;;;;;0.01;100.00;100523.72;7398704;19;20368;-59
2023/11/26 00:13:07;;;;;;;12.43;5.20;;;;;;;-0.04;100.00;100521.47;7396910;19;20356;-58
2023/11/26 00:15:34;;;;;;;8.35;5.28;;;;;;;-0.03;100.00;100518.72;7396369;19;20356;-56
2023/11/26 00:18:01;;;;;;;9.48;4.80;;;;;;;-0.01;100.00;100516.00;7392562;19;20926;-59
2023/11/26 00:20:28;;;;;;;9.73;5.00;;;;;;;-0.04;100.00;100511.84;7391837;19;20427;-60
2023/11/26 00:22:55;;;;;;;8.15;4.95;;;;;;;-0.03;100.00;100508.28;7391430;19;20889;-58
2023/11/26 00:25:21;;;;;;;8.32;4.90;;;;;;;-0.04;100.00;100517.06;7380855;19;20437;-57
2023/11/26 00:27:48;;;;;;;9.40;5.05;;;;;;;-0.05;100.00;100510.16;7380157;19;20376;-57
2023/11/26 00:30:15;;;;;;;8.85;5.03;;;;;;;-0.04;100.00;100508.41;7388260;19;20349;-60
2023/11/26 00:32:42;;;;;;;7.38;4.93;;;;;;;-0.06;100.00;100503.31;7388362;19;20359;-60
2023/11/26 00:35:12;;;;;;;11.65;5.70;;;;;;;-0.07;100.00;100506.00;7388046;19;20341;-60
2023/11/26 00:37:39;;;;;;;7.47;5.22;;;;;;;-0.06;100.00;100503.31;7387768;19;20894;-60
2023/11/26 00:40:06;;;;;;;8.45;5.60;;;;;;;-0.08;100.00;100513.00;7385525;19;20379;-56
2023/11/26 00:42:33;;;;;;;10.60;5.40;;;;;;;-0.09;100.00;100511.34;7391224;19;20360;-58
2023/11/26 00:45:00;;;;;;;9.70;5.35;;;;;;;-0.10;100.00;100511.47;7394574;19;20390;-59
2023/11/26 00:47:27;;;;;;;10.88;5.53;;;;;;;-0.07;100.00;100517.25;7396470;19;20373;-60
2023/11/26 00:49:58;;;;;;;11.52;5.53;;;;;;;-0.09;100.00;100513.94;7395243;19;20429;-57
2023/11/26 00:52:25;;;;;;;10.23;5.38;;;;;;;-0.09;100.00;100519.16;7395350;19;20647;-60
2023/11/26 00:54:52;;;;;;;9.07;5.25;;;;;;;-0.08;100.00;100520.84;7396834;19;20356;-57
2023/11/26 00:57:19;;;;;;;8.57;5.30;;;;;;;-0.07;100.00;100517.25;7392136;19;20360;-60
2023/11/26 00:59:45;;;;;;;8.70;5.63;;;;;;;-0.06;100.00;100518.94;7393424;19;20741;-60
2023/11/26 01:02:12;;;;;;;9.45;5.45;;;;;;;-0.06;100.00;100524.16;7395326;19;20841;-58
2023/11/26 01:04:39;;;;;;;10.38;5.10;;;;;;;-0.02;100.00;100516.97;7395474;19;20369;-59
2023/11/26 01:07:06;;;;;;;8.60;5.03;;;;;;;0.01;100.00;100523.72;7393984;19;20364;-58
2023/11/26 01:09:32;;;;;;;7.80;4.88;;;;;;;0.01;100.00;100518.50;7394803;19;20419;-55
2023/11/26 01:11:59;;;;;;;8.30;5.35;;;;;;;0.02;100.00;100517.56;7396055;19;20375;-57
2023/11/26 01:14:26;;;;;;;9.60;4.97;;;;;;;0.03;100.00;100521.84;7395145;19;20352;-59
2023/11/26 01:16:53;;;;;;;7.15;4.75;;;;;;;0.03;100.00;100529.66;7394328;19;20408;-55
2023/11/26 01:19:21;;;;;;;11.60;5.00;;;;;;;0.05;100.00;100530.38;7396502;19;20778;-57
2023/11/26 01:21:48;;;;;;;8.05;5.13;;;;;;;0.06;100.00;100526.81;7396093;19;20910;-59
2023/11/26 01:24:15;;;;;;;10.15;4.90;;;;;;;0.05;100.00;100530.38;7396106;19;20431;-56
2023/11/26 01:26:42;;;;;;;8.40;5.03;;;;;;;0.05;100.00;100533.00;7392394;19;20367;-56
2023/11/26 01:29:08;;;;;;;9.25;4.72;;;;;;;0.05;99.91;100535.59;7389344;19;20483;-58
2023/11/26 01:31:35;;;;;;;8.77;4.80;;;;;;;0.05;100.00;100536.44;7392672;19;20365;-58
2023/11/26 01:34:02;;;;;;;7.50;4.70;;;;;;;0.06;100.00;100542.47;7395871;19;20415;-58
2023/11/26 01:36:29;;;;;;;9.20;5.00;;;;;;;0.07;99.86;100539.75;7395322;19;20360;-59
2023/11/26 01:38:56;;;;;;;8.38;4.55;;;;;;;0.07;99.91;100536.31;7393609;19;20475;-60
2023/11/26 01:41:23;;;;;;;10.00;4.70;;;;;;;0.07;99.76;100541.53;7392499;19;20450;-59
2023/11/26 01:43:51;;;;;;;8.77;4.75;;;;;;;0.05;99.89;100536.44;7393326;19;20364;-59
2023/11/26 01:46:19;;;;;;;8.38;4.18;;;;;;;0.06;99.77;100545.06;7395167;19;20406;-59
2023/11/26 01:48:47;;;;;;;8.75;4.32;;;;;;;0.05;99.69;100541.63;7393322;19;20414;-55
2023/11/26 01:51:15;;;;;;;9.13;4.73;;;;;;;0.06;99.37;100532.03;7389534;19;20377;-59
2023/11/26 01:53:45;;;;;;;8.55;4.65;;;;;;;0.03;99.53;100540.09;7392184;19;20352;-56
2023/11/26 01:56:14;;;;;;;7.97;4.10;;;;;;;0.05;99.41;100540.81;7394145;19;20360;-58
2023/11/26 01:58:41;;;;;;;9.33;4.40;;;;;;;0.05;99.38;100538.22;7394225;19;20712;-58
2023/11/26 02:01:10;;;;;;;7.95;4.45;;;;;;;0.04;99.59;100534.75;7391905;19;20352;-55
2023/11/26 02:03:37;;;;;;;8.25;4.70;;;;;;;0.05;99.40;100546.84;7391448;19;20349;-59
2023/11/26 02:06:05;;;;;;;8.95;4.53;;;;;;;0.05;99.27;100541.63;7391761;19;20345;-59
2023/11/26 02:08:33;;;;;;;8.52;4.55;;;;;;;0.03;99.29;100537.47;7394059;19;20365;-60
2023/11/26 02:11:00;;;;;;;7.20;4.40;;;;;;;0.02;99.37;100541.03;7391071;19;20456;-61
2023/11/26 02:13:27;;;;;;;8.43;4.68;;;;;;;0.02;99.48;100541.84;7392930;19;20348;-60
2023/11/26 02:15:55;;;;;;;7.45;4.13;;;;;;;0.03;99.22;100550.53;7393073;19;20387;-60
2023/11/26 02:18:22;;;;;;;9.18;4.40;;;;;;;0.03;99.36;100553.13;7391563;19;20336;-58
2023/11/26 02:20:49;;;;;;;9.65;4.50;;;;;;;0.03;99.10;100550.53;7392637;19;20447;-58
2023/11/26 02:23:16;;;;;;;8.90;4.60;;;;;;;0.02;99.13;100547.06;7392052;19;20654;-65
2023/11/26 02:25:43;;;;;;;7.95;4.50;;;;;;;-0.01;99.24;100555.94;7391368;19;20345;-56
2023/11/26 02:28:11;;;;;;;8.05;4.72;;;;;;;-0.01;99.50;100557.72;7393726;19;20344;-56
2023/11/26 02:30:37;;;;;;;9.02;4.53;;;;;;;0.01;99.30;100555.03;7391777;19;20381;-57
2023/11/26 02:33:06;;;;;;;8.02;4.80;;;;;;;0.01;99.23;100550.63;7392004;19;20336;-58
2023/11/26 02:35:34;;;;;;;8.50;4.60;;;;;;;0.00;99.56;100551.59;7394544;19;20351;-58
2023/11/26 02:38:02;;;;;;;7.87;4.60;;;;;;;0.01;99.42;100555.84;7393781;19;20687;-60
2023/11/26 02:40:29;;;;;;;7.93;4.32;;;;;;;0.02;99.10;100554.06;7388229;19;20962;-58
2023/11/26 02:42:59;;;;;;;10.68;4.45;;;;;;;0.03;99.25;100550.53;7394026;19;20377;-58
2023/11/26 02:45:26;;;;;;;6.93;4.50;;;;;;;0.03;99.12;100560.97;7390895;19;20372;-60
2023/11/26 02:47:53;;;;;;;7.05;4.40;;;;;;;0.06;99.13;100558.94;7389922;19;20376;-58
2023/11/26 02:50:19;;;;;;;8.70;4.45;;;;;;;0.05;98.97;100561.69;7389203;19;20832;-61
2023/11/26 02:52:46;;;;;;;9.25;4.40;;;;;;;0.08;98.71;100561.44;7392136;19;20388;-60
2023/11/26 02:55:14;;;;;;;9.68;4.70;;;;;;;0.07;98.71;100563.22;7390516;19;20384;-60
2023/11/26 02:57:40;;;;;;;8.63;4.45;;;;;;;0.06;98.78;100563.34;7392381;19;20436;-58
2023/11/26 03:00:15;;;;;;;9.48;4.82;;;;;;;0.05;98.76;100564.28;7389823;19;20377;-59
2023/11/26 03:02:44;;;;;;;8.63;4.40;;;;;;;0.04;98.63;100566.03;7390718;19;20747;-60
2023/11/26 03:05:18;;;;;;;9.73;4.53;;;;;;;0.05;98.31;100572.13;7392453;19;20371;-58
2023/11/26 03:07:46;;;;;;;8.93;4.80;;;;;;;0.03;98.38;100568.78;7389178;19;20348;-59
2023/11/26 03:13:20;;;;;;;8.73;4.60;;;;;;;0.00;98.51;100575.06;7393421;19;20474;-58
2023/11/26 03:15:49;;;;;;;7.93;4.65;;;;;;;-0.05;98.69;100572.75;7397096;19;20372;-59
2023/11/26 03:18:17;;;;;;;9.88;4.93;;;;;;;-0.04;98.86;100574.44;7399567;19;20388;-60
2023/11/26 03:20:45;;;;;;;7.57;4.57;;;;;;;-0.05;99.08;100579.75;7396978;19;20747;-58
2023/11/26 03:23:13;;;;;;;10.43;5.00;;;;;;;-0.05;98.71;100575.34;7398942;19;20432;-59
2023/11/26 03:25:40;;;;;;;7.13;4.45;;;;;;;-0.07;98.99;100572.03;7396321;19;20864;-59
2023/11/26 03:28:08;;;;;;;6.53;4.53;;;;;;;-0.07;98.85;100573.81;7395100;19;20388;-57
2023/11/26 03:30:35;;;;;;;7.38;4.70;;;;;;;-0.08;98.97;100575.59;7398421;19;20368;-56
2023/11/26 03:33:03;;;;;;;9.20;4.78;;;;;;;-0.09;99.23;100581.72;7397156;19;20368;-61
2023/11/26 03:35:30;;;;;;;7.57;4.80;;;;;;;-0.07;99.10;100585.06;7399502;19;20341;-58
2023/11/26 03:37:57;;;;;;;7.50;5.50;;;;;;;-0.06;99.07;100584.13;7398030;19;20364;-58
2023/11/26 03:40:24;;;;;;;7.70;5.20;;;;;;;-0.08;99.09;100585.19;7397260;19;20879;-60
2023/11/26 03:42:51;;;;;;;8.32;5.05;;;;;;;-0.10;99.25;100584.47;7396463;19;20352;-58
2023/11/26 03:45:18;;;;;;;8.67;5.60;;;;;;;-0.11;99.34;100588.81;7398537;19;20427;-57
2023/11/26 03:47:46;;;;;;;12.30;5.45;;;;;;;-0.11;99.28;100588.81;7395246;19;20746;-59
2023/11/26 03:50:13;;;;;;;12.35;6.05;;;;;;;-0.13;99.18;100585.50;7397421;19;20356;-58
2023/11/26 03:52:40;;;;;;;9.73;5.55;;;;;;;-0.12;99.24;100591.56;7395675;19;20339;-58
2023/11/26 03:55:08;;;;;;;8.98;5.70;;;;;;;-0.14;99.41;100596.06;7392382;19;20386;-59
2023/11/26 03:57:37;;;;;;;9.23;5.68;;;;;;;-0.14;99.65;100603.88;7390365;19;20792;-59
2023/11/26 04:00:08;;;;;;;9.48;5.60;;;;;;;-0.17;99.58;100602.31;7391456;19;20329;-59
2023/11/26 04:02:41;;;;;;;9.73;5.75;;;;;;;-0.18;99.60;100602.44;7394364;19;20903;-59
2023/11/26 04:05:10;;;;;;;8.30;5.95;;;;;;;-0.20;99.50;100612.94;7394136;19;21189;-58
2023/11/26 04:07:37;;;;;;;10.05;6.18;;;;;;;-0.22;99.64;100615.66;7392804;19;20691;-61
2023/11/26 04:10:06;;;;;;;11.32;6.65;;;;;;;-0.23;99.77;100615.78;7399219;19;20365;-57
2023/11/26 04:12:36;;;;;;;9.85;6.32;;;;;;;-0.24;99.91;100617.53;7396336;19;20807;-58
2023/11/26 04:15:06;;;;;;;9.50;6.53;;;;;;;-0.26;99.81;100616.81;7397076;19;20376;-59
2023/11/26 04:17:34;;;;;;;9.00;6.50;;;;;;;-0.26;100.00;100618.59;7394805;19;20376;-58
2023/11/26 04:20:05;;;;;;;9.77;6.70;;;;;;;-0.25;100.00;100622.88;7397551;19;20933;-60
2023/11/26 04:22:33;;;;;;;9.95;6.35;;;;;;;-0.27;99.92;100624.75;7396955;19;20424;-60
2023/11/26 04:25:01;;;;;;;9.70;6.70;;;;;;;-0.28;99.91;100628.28;7397952;19;20389;-60
2023/11/26 04:27:28;;;;;;;11.57;7.63;;;;;;;-0.28;99.81;100623.06;7395240;19;20373;-58
2023/11/26 04:29:55;;;;;;;14.67;8.20;;;;;;;-0.30;99.95;100630.16;7393790;19;20352;-59
2023/11/26 04:32:21;;;;;;;12.77;7.80;;;;;;;-0.31;99.92;100621.53;7394641;19;20423;-58
2023/11/26 04:34:52;;;;;;;13.60;7.45;;;;;;;-0.31;99.93;100628.50;7387237;19;20325;-59
2023/11/26 04:37:19;;;;;;;14.02;8.13;;;;;;;-0.31;99.89;100634.56;7392359;19;20880;-59
2023/11/26 04:39:45;;;;;;;13.75;8.00;;;;;;;-0.27;100.00;100627.38;7396037;19;20424;-59
2023/11/26 04:42:12;;;;;;;16.05;8.65;;;;;;;-0.24;100.00;100630.56;7394389;19;20365;-60
2023/11/26 04:44:39;;;;;;;12.75;8.18;;;;;;;-0.19;100.00;100630.28;7396726;19;20383;-59
2023/11/26 04:47:07;;;;;;;12.40;7.78;;;;;;;-0.13;100.00;100632.44;7394797;19;20388;-60
2023/11/26 04:49:34;;;;;;;14.80;8.10;;;;;;;-0.09;99.92;100636.50;7396443;19;20393;-60
2023/11/26 04:52:02;;;;;;;13.47;7.20;;;;;;;-0.03;99.95;100633.44;7395512;19;20469;-59
2023/11/26 04:54:29;;;;;;;12.10;7.35;;;;;;;0.03;99.85;100620.94;7394873;19;20809;-59
2023/11/26 04:56:56;;;;;;;12.82;7.47;;;;;;;0.07;99.78;100622.38;7396700;19;20355;-58
2023/11/26 04:59:23;;;;;;;13.30;7.20;;;;;;;0.07;99.75;100623.22;7396311;19;20662;-59
2023/11/26 05:01:54;;;;;;;10.15;7.30;;;;;;;0.10;99.76;100628.19;7393254;19;20360;-59
2023/11/26 05:04:21;;;;;;;8.60;7.05;;;;;;;0.10;99.50;100612.56;7396521;19;20903;-60
2023/11/26 05:06:48;;;;;;;10.43;7.30;;;;;;;0.12;99.57;100625.50;7394082;19;20356;-58
2023/11/26 05:09:16;;;;;;;10.57;6.85;;;;;;;0.13;99.78;100616.75;7394786;19;20340;-59
2023/11/26 05:11:44;;;;;;;15.25;7.50;;;;;;;0.14;99.68;100623.59;7393255;19;20371;-59
2023/11/26 05:14:12;;;;;;;10.38;7.18;;;;;;;0.16;99.60;100621.72;7394300;19;20838;-57
2023/11/26 05:16:39;;;;;;;9.60;7.25;;;;;;;0.18;99.79;100625.88;7395678;19;20370;-60
2023/11/26 05:19:06;;;;;;;9.05;6.75;;;;;;;0.19;99.81;100627.56;7395520;19;20336;-58
2023/11/26 05:21:33;;;;;;;10.77;6.83;;;;;;;0.19;99.63;100629.31;7394857;19;20377;-59
2023/11/26 05:24:00;;;;;;;11.05;6.60;;;;;;;0.23;99.70;100629.94;7396347;19;20380;-58
2023/11/26 05:26:27;;;;;;;12.00;7.00;;;;;;;0.27;99.95;100623.56;7394222;19;20370;-59
2023/11/26 05:28:54;;;;;;;10.20;7.15;;;;;;;0.29;99.76;100627.72;7393985;19;20427;-61
2023/11/26 05:31:22;;;;;;;10.35;7.20;;;;;;;0.32;99.93;100622.31;7393377;19;20352;-59
2023/11/26 05:33:51;;;;;;;9.68;6.47;;;;;;;0.36;99.64;100625.50;7394165;19;20456;-57
2023/11/26 05:36:18;;;;;;;12.13;6.50;;;;;;;0.39;99.87;100633.94;7391854;19;20424;-59
2023/11/26 05:38:46;;;;;;;11.18;6.80;;;;;;;0.42;99.79;100637.28;7397621;19;20356;-60
2023/11/26 05:41:13;;;;;;;12.90;6.65;;;;;;;0.40;99.64;100625.19;7393593;19;20438;-59
2023/11/26 05:43:40;;;;;;;12.50;6.70;;;;;;;0.44;99.85;100630.19;7393679;19;20401;-59
2023/11/26 05:46:07;;;;;;;9.70;6.82;;;;;;;0.46;99.80;100628.28;7394157;19;20395;-59
2023/11/26 05:48:34;;;;;;;9.38;6.45;;;;;;;0.48;99.71;100631.63;7392933;19;20356;-57
2023/11/26 05:51:02;;;;;;;10.55;7.38;;;;;;;0.50;99.55;100629.72;7394525;19;20845;-59
2023/11/26 05:53:32;;;;;;;9.52;6.75;;;;;;;0.52;99.69;100617.41;7387930;19;20404;-59
2023/11/26 05:55:59;;;;;;;10.33;6.70;;;;;;;0.53;99.83;100622.53;7394143;19;20364;-60
2023/11/26 05:58:26;;;;;;;10.90;6.97;;;;;;;0.57;99.75;100617.88;7396333;19;20332;-59
2023/11/26 06:00:53;;;;;;;9.10;6.38;;;;;;;0.61;99.75;100627.16;7393115;19;20705;-59
2023/11/26 06:03:21;;;;;;;10.65;6.57;;;;;;;0.64;99.55;100631.31;7391937;19;20380;-60
2023/11/26 06:05:52;;;;;;;10.13;6.57;;;;;;;0.67;99.76;100625.88;7394660;19;20373;-58
2023/11/26 06:08:19;;;;;;;9.27;6.53;;;;;;;0.69;99.75;100632.66;7393312;19;20368;-59
2023/11/26 06:10:46;;;;;;;11.37;6.90;;;;;;;0.68;99.28;100638.84;7393467;19;20349;-58
2023/11/26 06:13:13;;;;;;;8.50;6.20;;;;;;;0.70;99.32;100642.19;7395164;19;20451;-60
2023/11/26 06:15:40;;;;;;;9.10;6.53;;;;;;;0.70;99.26;100651.75;7392887;19;20358;-59
2023/11/26 06:18:07;;;;;;;8.93;6.47;;;;;;;0.70;99.25;100631.72;7393616;19;20375;-59
2023/11/26 06:20:36;;;;;;;11.05;6.75;;;;;;;0.69;99.19;100635.28;7395682;19;20380;-60
2023/11/26 06:23:04;;;;;;;11.60;7.17;;;;;;;0.67;99.19;100637.16;7394401;19;20352;-61
2023/11/26 06:25:31;;;;;;;11.05;7.82;;;;;;;0.65;99.12;100636.44;7391326;19;20364;-61
2023/11/26 06:27:57;;;;;;;13.95;7.28;;;;;;;0.64;98.97;100634.78;7392899;19;20360;-60
2023/11/26 06:30:24;;;;;;;10.63;7.07;;;;;;;0.61;99.17;100645.44;7393859;19;20836;-58
2023/11/26 06:32:52;;;;;;;10.30;7.13;;;;;;;0.58;99.31;100643.06;7394948;19;20387;-59
2023/11/26 06:35:19;;;;;;;11.93;7.55;;;;;;;0.54;98.81;100636.41;7392385;19;20361;-60
2023/11/26 06:37:45;;;;;;;10.32;7.63;;;;;;;0.51;98.99;100639.22;7392701;19;20357;-60
2023/11/26 06:40:12;;;;;;;11.30;8.10;;;;;;;0.49;99.59;100641.09;7392505;19;20372;-60
2023/11/26 06:42:43;;;;;;;12.68;8.40;;;;;;;0.51;99.80;100647.91;7391922;19;20376;-61
2023/11/26 06:45:10;;;;;;;11.88;8.57;;;;;;;0.54;99.90;100641.63;7392306;19;20344;-62
2023/11/26 06:47:38;;;;;;;9.95;8.00;;;;;;;0.54;99.63;100641.63;7389966;19;20356;-60
2023/11/26 06:50:06;;;;;;;12.45;8.60;;;;;;;0.57;99.87;100646.59;7393947;19;20345;-61
2023/11/26 06:52:33;;;;;;;12.60;8.73;;;;;;;0.58;99.86;100643.06;7392279;19;20687;-60
2023/11/26 06:55:01;;;;;;;13.20;8.32;;;;;;;0.62;99.88;100641.91;7392118;19;20340;-61
2023/11/26 06:57:28;;;;;;;11.23;8.23;;;;;;;0.63;99.59;100638.31;7391773;19;20367;-60
2023/11/26 06:59:56;;;;;;;12.70;8.50;;;;;;;0.63;99.45;100635.72;7394728;19;20348;-60
2023/11/26 07:02:23;;;;;;;12.50;8.32;;;;;;;0.61;99.46;100642.81;7389001;19;20394;-60
2023/11/26 07:04:49;;;;;;;10.75;8.07;;;;;;;0.61;99.67;100643.66;7390732;19;20345;-58
2023/11/26 07:07:20;;;;;;;10.00;7.63;;;;;;;0.61;99.30;100648.03;7389603;19;20381;-60
2023/11/26 07:09:47;;;;;;;10.82;7.85;;;;;;;0.61;99.18;100648.03;7393123;19;20687;-61
2023/11/26 07:12:14;;;;;;;10.57;7.47;;;;;;;0.60;99.19;100651.63;7392500;19;20785;-59
2023/11/26 07:14:43;;;;;;;10.77;8.05;;;;;;;0.57;99.19;100657.03;7392271;19;20347;-59
2023/11/26 07:17:12;;;;;;;10.82;8.15;;;;;;;0.60;99.14;100662.06;7391218;19;20344;-62
2023/11/26 07:19:44;;;;;;;12.02;7.68;;;;;;;0.64;99.34;100649.59;7392343;19;20361;-60
2023/11/26 07:22:13;;;;;;;12.70;8.15;;;;;;;0.70;99.67;100652.63;7391031;19;20360;-59
2023/11/26 07:24:41;;;;;;;10.38;7.70;;;;;;;0.77;99.76;100664.25;7392453;19;20864;-61
2023/11/26 07:27:08;;;;;;;12.02;8.00;;;;;;;0.84;99.65;100654.19;7390894;19;20356;-60
2023/11/26 07:29:36;;;;;;;10.63;7.40;;;;;;;0.91;99.45;100644.94;7387622;19;20365;-61
2023/11/26 07:32:03;;;;;;;11.40;7.47;;;;;;;1.00;99.51;100640.84;7385249;19;20368;-61
2023/11/26 07:34:30;;;;;;;14.10;9.07;;;;;;;1.10;99.37;100639.19;7377311;19;20388;-61
2023/11/26 07:36:57;;;;;;;9.95;7.03;;;;;;;1.17;99.27;100645.63;7388571;19;20864;-60
2023/11/26 07:39:24;;;;;;;10.23;6.60;;;;;;;1.22;98.80;100642.69;7388759;19;20364;-61
2023/11/26 07:41:51;;;;;;;10.80;6.20;;;;;;;1.26;98.49;100645.91;7385452;19;20368;-62
2023/11/26 07:44:18;;;;;;;9.07;5.93;;;;;;;1.30;98.30;100634.25;7391502;19;20921;-60
2023/11/26 07:46:45;;;;;;;11.25;5.93;;;;;;;1.34;98.05;100630.44;7384352;19;20385;-60
2023/11/26 07:49:12;;;;;;;8.75;5.53;;;;;;;1.37;97.86;100628.44;7386834;19;20373;-62
2023/11/26 07:51:39;;;;;;;7.78;5.30;;;;;;;1.41;97.95;100621.19;7389689;19;20360;-61
2023/11/26 07:54:06;;;;;;;9.00;5.10;;;;;;;1.44;97.23;100618.34;7382419;19;20392;-61
2023/11/26 07:56:41;;;;;;;8.68;4.72;;;;;;;1.46;97.07;100619.06;7382370;19;20731;-61
2023/11/26 07:59:08;;;;;;;8.60;4.90;;;;;;;1.51;97.13;100616.94;7384312;19;20379;-62
2023/11/26 08:01:34;;;;;;;9.07;4.63;;;;;;;1.53;96.42;100614.19;7385073;19;20872;-61
2023/11/26 08:04:02;;;;;;;8.38;4.60;;;;;;;1.56;96.21;100619.19;7388372;19;20353;-61
2023/11/26 08:06:30;;;;;;;8.82;4.38;;;;;;;1.60;96.01;100620.63;7389367;19;20361;-61
2023/11/26 08:08:58;;;;;;;7.50;4.30;;;;;;;1.66;96.03;100620.16;7390077;19;20369;-61
2023/11/26 08:11:33;;;;;;;6.55;4.18;;;;;;;1.72;95.84;100609.22;7395429;19;20374;-62
2023/11/26 08:14:03;;;;;;;6.30;3.95;;;;;;;1.83;96.03;100617.03;7398880;19;20928;-61
2023/11/26 08:16:30;;;;;;;7.23;4.27;;;;;;;1.97;96.12;100618.56;7396053;19;20364;-62
2023/11/26 08:19:02;;;;;;;8.02;4.43;;;;;;;2.11;96.11;100614.88;7396712;19;20352;-62
2023/11/26 08:21:34;;;;;;;8.15;4.68;;;;;;;2.22;95.82;100621.84;7395802;19;20702;-61
2023/11/26 08:24:02;;;;;;;8.05;5.20;;;;;;;2.35;95.37;100619.09;7399491;19;20357;-61
2023/11/26 08:26:33;;;;;;;6.65;4.80;;;;;;;2.44;94.87;100626.19;7397552;19;20353;-61
2023/11/26 08:29:00;;;;;;;10.68;5.00;;;;;;;2.53;94.48;100619.38;7397051;19;20389;-62
2023/11/26 08:31:28;;;;;;;6.00;4.00;;;;;;;2.58;94.07;100617.22;7394881;19;20341;-62
2023/11/26 08:33:55;;;;;;;6.13;4.50;;;;;;;2.62;93.48;100614.22;7398095;19;20368;-61
2023/11/26 08:36:23;;;;;;;7.65;4.55;;;;;;;2.67;92.81;100608.59;7396855;19;20385;-61
2023/11/26 08:38:50;;;;;;;7.88;5.55;;;;;;;2.71;93.06;100610.00;7395912;19;20380;-62
2023/11/26 08:41:21;;;;;;;8.77;5.70;;;;;;;2.73;92.56;100600.25;7395637;19;20377;-62
2023/11/26 08:43:50;;;;;;;6.97;4.70;;;;;;;2.70;91.40;100597.91;7396027;19;20364;-60
2023/11/26 08:46:21;;;;;;;5.93;4.57;;;;;;;2.71;91.48;100591.69;7395530;19;20353;-60
2023/11/26 08:48:50;;;;;;;6.75;4.95;;;;;;;2.73;91.54;100595.00;7397038;19;20353;-62
2023/11/26 08:51:18;;;;;;;9.02;5.35;;;;;;;2.73;91.27;100599.41;7395590;19;20372;-61
2023/11/26 08:53:45;;;;;;;7.93;5.40;;;;;;;2.72;91.35;100590.75;7396742;19;20385;-61
2023/11/26 08:56:12;;;;;;;9.15;5.38;;;;;;;2.74;91.40;100591.44;7395633;19;20365;-62
2023/11/26 08:58:39;;;;;;;8.30;5.57;;;;;;;2.79;91.64;100591.88;7396253;19;20360;-61
2023/11/26 09:01:07;;;;;;;7.93;6.10;;;;;;;2.80;91.20;100590.91;7394522;19;20352;-60
2023/11/26 09:03:36;;;;;;;8.35;5.43;;;;;;;2.90;91.86;100579.69;7394822;19;20915;-60
2023/11/26 09:06:04;;;;;;;7.80;5.83;;;;;;;2.94;91.27;100594.19;7395646;19;20429;-62
2023/11/26 09:08:31;;;;;;;10.05;6.70;;;;;;;3.00;91.01;100593.69;7396036;19;20365;-62
2023/11/26 09:10:58;;;;;;;10.13;6.32;;;;;;;3.06;91.19;100593.19;7391465;19;20404;-62
2023/11/26 09:13:28;;;;;;;10.15;6.72;;;;;;;3.14;90.68;100582.84;7396603;19;20384;-61
2023/11/26 09:15:57;;;;;;;9.00;6.05;;;;;;;3.16;89.93;100591.41;7394492;19;20694;-62
2023/11/26 09:18:25;;;;;;;7.72;6.43;;;;;;;3.22;90.22;100590.91;7395338;19;20360;-62
2023/11/26 09:20:52;;;;;;;9.82;5.85;;;;;;;3.30;89.90;100592.88;7394266;19;20360;-63
2023/11/26 09:23:19;;;;;;;8.55;6.40;;;;;;;3.35;89.91;100590.69;7395980;19;20910;-64
2023/11/26 09:25:45;;;;;;;11.13;7.50;;;;;;;3.43;89.64;100597.91;7394212;19;20981;-63
2023/11/26 09:28:12;;;;;;;10.32;6.53;;;;;;;3.45;89.23;100590.75;7393304;19;20372;-64
2023/11/26 09:30:39;;;;;;;9.40;6.75;;;;;;;3.48;89.28;100590.47;7391107;19;20953;-65
2023/11/26 09:33:06;;;;;;;9.02;6.55;;;;;;;3.52;89.42;100594.50;7393028;19;20368;-64
2023/11/26 09:35:33;;;;;;;9.30;6.97;;;;;;;3.54;88.73;100592.56;7393595;19;20363;-64
2023/11/26 09:37:59;;;;;;;11.70;7.37;;;;;;;3.56;88.90;100601.13;7394095;19;20424;-61
2023/11/26 09:40:26;;;;;;;10.13;7.25;;;;;;;3.60;88.79;100589.41;7395005;19;20427;-62
2023/11/26 09:42:56;;;;;;;11.85;7.95;;;;;;;3.67;89.01;100581.84;7393217;19;20363;-64
2023/11/26 09:45:23;;;;;;;9.68;7.72;;;;;;;3.78;89.72;100579.16;7394691;19;20353;-64
2023/11/26 09:47:50;;;;;;;10.82;8.60;;;;;;;3.92;90.01;100575.28;7392519;19;20780;-64
2023/11/26 09:50:17;;;;;;;11.45;9.15;;;;;;;4.07;89.34;100573.13;7393974;19;20431;-64
2023/11/26 09:52:47;;;;;;;12.82;8.90;;;;;;;4.13;88.80;100571.75;7393323;19;20367;-64
2023/11/26 09:55:14;;;;;;;11.95;10.07;;;;;;;4.23;89.19;100569.94;7393527;19;20360;-64
2023/11/26 09:57:42;;;;;;;15.20;10.23;;;;;;;4.32;89.07;100570.94;7394075;19;20371;-64
2023/11/26 10:00:12;;;;;;;14.40;9.82;;;;;;;4.38;88.20;100565.97;7392516;19;20375;-65
2023/11/26 10:02:42;;;;;;;13.23;9.38;;;;;;;4.40;87.80;100557.94;7392642;19;20385;-64
2023/11/26 10:05:33;;;;;;;12.93;8.43;;;;;;;4.44;87.86;100560.16;7391728;19;20428;-64
2023/11/26 10:08:02;;;;;;;11.02;8.82;;;;;;;4.47;87.50;100559.88;7392556;19;20359;-64
2023/11/26 10:10:29;;;;;;;11.50;7.78;;;;;;;4.48;87.48;100563.31;7391812;19;20381;-64
2023/11/26 10:12:59;;;;;;;9.98;7.32;;;;;;;4.49;86.99;100571.06;7393069;19;20369;-64
2023/11/26 10:15:31;;;;;;;11.68;7.88;;;;;;;4.51;87.07;100564.88;7389437;19;20872;-64
2023/11/26 10:18:05;;;;;;;10.20;7.95;;;;;;;4.59;87.77;100560.56;7393539;19;20383;-61
2023/11/26 10:20:34;;;;;;;9.80;7.55;;;;;;;4.64;87.07;100562.78;7391044;19;20776;-62
2023/11/26 10:23:02;;;;;;;10.68;8.18;;;;;;;4.66;87.00;100556.41;7391807;19;20363;-62
2023/11/26 10:25:29;;;;;;;10.23;7.90;;;;;;;4.67;87.10;100554.59;7393756;19;20369;-61
2023/11/26 10:27:59;;;;;;;9.68;7.55;;;;;;;4.70;87.16;100562.22;7392428;19;20682;-62
2023/11/26 10:30:32;;;;;;;10.15;8.07;;;;;;;4.69;86.70;100565.81;7387250;19;20364;-62
2023/11/26 10:33:04;;;;;;;8.93;7.90;;;;;;;4.58;86.65;100558.09;7392964;19;20888;-62
2023/11/26 10:36:04;;;;;;;9.17;7.50;;;;;;;4.52;87.07;100563.88;7394411;19;20339;-62
2023/11/26 10:38:34;;;;;;;9.30;8.00;;;;;;;4.44;87.38;100557.53;7390114;19;20416;-62
2023/11/26 10:41:03;;;;;;;8.80;7.70;;;;;;;4.31;87.18;100551.72;7392176;19;20367;-62
2023/11/26 10:43:34;;;;;;;9.98;7.60;;;;;;;4.26;87.65;100559.19;7393315;19;20363;-61
2023/11/26 10:46:14;;;;;;;10.27;7.55;;;;;;;4.20;88.07;100549.22;7390830;19;20746;-62
2023/11/26 10:48:45;;;;;;;11.23;8.63;;;;;;;4.17;88.62;100545.09;7391329;19;20353;-63
2023/11/26 10:51:26;;;;;;;11.27;8.20;;;;;;;4.20;89.03;100541.34;7392596;19;20348;-64
2023/11/26 10:54:19;;;;;;;11.43;8.50;;;;;;;4.23;89.51;100538.44;7389618;19;20381;-64
2023/11/26 10:56:49;;;;;;;12.27;8.38;;;;;;;4.26;89.78;100556.56;7391766;19;20428;-64
2023/11/26 10:59:19;;;;;;;10.65;8.20;;;;;;;4.28;90.15;100552.00;7392637;19;20359;-64
2023/11/26 11:01:47;;;;;;;9.87;7.77;;;;;;;4.29;90.14;100559.75;7389381;19;20365;-64
2023/11/26 11:04:15;;;;;;;9.27;7.50;;;;;;;4.30;89.83;100550.06;7391440;19;20369;-64
2023/11/26 11:06:45;;;;;;;11.10;8.25;;;;;;;4.30;90.11;100555.31;7390746;19;20377;-63
2023/11/26 11:09:22;;;;;;;11.00;7.90;;;;;;;4.35;90.49;100545.22;7392405;19;20376;-63
2023/11/26 11:12:07;;;;;;;10.05;7.38;;;;;;;4.42;90.32;100554.22;7389894;19;20377;-63
2023/11/26 11:14:34;;;;;;;9.98;7.40;;;;;;;4.43;90.40;100558.50;7389416;19;20412;-63
2023/11/26 11:17:01;;;;;;;9.43;6.78;;;;;;;4.41;90.09;100557.81;7392873;19;20393;-65
2023/11/26 11:19:48;;;;;;;8.45;6.53;;;;;;;4.43;90.00;100549.78;7392817;19;20372;-62
2023/11/26 11:22:15;;;;;;;8.95;6.45;;;;;;;4.47;90.71;100546.75;7389424;19;20700;-63
2023/11/26 11:24:43;;;;;;;7.90;6.00;;;;;;;4.51;90.77;100549.09;7389249;19;20364;-62
2023/11/26 11:27:11;;;;;;;5.68;4.05;;;;;;;4.46;91.19;100539.00;7390910;19;20389;-65
2023/11/26 11:29:38;;;;;;;6.72;4.05;;;;;;;4.42;91.53;100542.88;7390242;19;20397;-62
2023/11/26 11:32:05;;;;;;;6.63;4.35;;;;;;;4.35;91.71;100541.78;7389991;19;20372;-62
2023/11/26 11:34:33;;;;;;;5.83;4.23;;;;;;;4.34;92.50;100546.19;7399918;19;20361;-63